Terminal Aerodrome Forecast
Issued by NWS

Home | Current Version | Previous Version | Text Only | Print | Product List | Glossary On
Versions: 1 2 3 4 5 6 7 8 9 10 11 12 13 14 15 16 17 18 19 20 21 22 23 24 25 26 27 28 29 30
000
FTUS46 KEKA 181508 AAC
TAFCEC
TAF AMD
KCEC 181508Z 1815/1912 13003KT 1/2SM FG VV002
      TEMPO 1815/1817 1/4SM FG
     FM181700 22006KT 6SM BR SCT004 BKN035
     FM182000 30012G22KT 6SM HZ SKC
     FM190300 34014G20KT 6SM HZ SCT012
     FM190600 01011KT 2SM BR SCT006 OVC012=

USA.gov is the U.S. government's official web portal to all federal, state and local government web resources and services.